Latest Weather Observations for Coonawarra

IDS60801

Issued at 9:32 pm CDT Tuesday 31 March 2015 (issued every 30 minutes, with the page automatically refreshed every 10 minutes)

About weather observations | Map of weather stations | Latest weather observations for SA | Other Formats
Station Details ID: 026091 Name: COONAWARRA Lat: -37.29 Lon: 140.83 Height: 57.0 m
Data from the previous 72 hours. | See also: Recent months at Coonawarra
Date/Time
CDT
Temp
°C
App
Temp
°C
Dew
Point
Rel
Hum
%
Delta-T
°C
Wind Press
QNH
hPa
Press
MSL
hPa
Rain
since 9 am
mm
Dir
 
Spd
km/h
Gust
km/h
Spd
kts
Gust
kts
31/09:30pm 14.7 13.5 11.5 81 1.7 S 9 9 5 5 1020.9 1020.8 0.0
31/09:00pm 16.8 15.8 12.3 75 2.5 SSE 9 11 5 6 1020.8 1020.7 0.0
31/08:30pm 17.9 16.5 12.3 70 3.1 S 11 11 6 6 1020.8 1020.7 0.0
31/08:00pm 19.1 18.1 12.3 64 3.8 SSW 9 13 5 7 1020.7 1020.6 0.0
31/07:30pm 20.0 18.5 10.6 54 5.1 WSW 9 17 5 9 1020.6 1020.5 0.0
31/07:00pm 21.2 20.6 11.7 54 5.3 NW 6 7 3 4 1020.5 1020.4 0.0
31/06:30pm 24.1 22.3 7.8 35 8.6 NNW 7 11 4 6 1020.2 1020.1 0.0
31/06:00pm 26.4 24.3 6.8 28 10.3 NW 7 11 4 6 1020.0 1019.9 0.0
31/05:30pm 27.4 24.0 3.9 22 11.8 NNW 11 15 6 8 1020.2 1020.1 0.0
31/05:00pm 28.1 25.1 3.9 21 12.2 NNE 9 13 5 7 1020.2 1020.1 0.0
31/04:30pm 28.0 25.0 4.1 21 12.1 N 9 13 5 7 1020.3 1020.2 0.0
31/04:00pm 27.9 24.7 4.9 23 11.8 NNW 11 20 6 11 1020.8 1020.7 0.0
31/03:30pm 27.5 23.7 4.1 22 11.8 NW 13 17 7 9 1021.2 1021.1 0.0
31/03:00pm 27.7 24.5 5.1 23 11.6 NW 11 19 6 10 1021.5 1021.4 0.0
31/02:30pm 27.4 24.4 5.8 25 11.2 WNW 11 17 6 9 1021.9 1021.8 0.0
31/02:00pm 26.2 23.3 6.4 28 10.3 NNW 11 20 6 11 1022.4 1022.3 0.0
31/01:30pm 25.8 23.0 6.9 30 9.9 NNW 11 20 6 11 1022.9 1022.9 0.0
31/01:00pm 24.9 22.5 8.7 35 8.7 NW 11 24 6 13 1023.4 1023.4 0.0
31/12:30pm 24.3 21.6 8.9 37 8.3 NW 13 19 7 10 1023.9 1023.8 0.0
31/12:00pm 23.1 21.4 9.8 43 7.2 N 9 17 5 9 1024.4 1024.3 0.0
31/11:30am 22.0 20.2 10.9 49 6.1 N 11 19 6 10 1024.9 1024.8 0.0
31/11:00am 20.3 19.1 11.6 57 4.8 NNE 9 13 5 7 1025.3 1025.2 0.0
31/10:30am 18.6 18.1 11.9 65 3.7 NE 6 7 3 4 1025.7 1025.6 0.0
31/10:00am 16.0 15.5 12.1 77 2.1 E 6 9 3 5 1026.0 1025.9 0.0
31/09:30am 13.3 13.7 12.6 95 0.4 SE 2 7 1 4 1026.0 1025.9 0.0
31/09:00am 11.5 10.5 11.1 97 0.2 ESE 7 9 4 5 1025.8 1025.7 0.0
31/08:30am 9.6 7.7 9.2 97 0.2 ESE 9 13 5 7 1025.7 1025.6 0.0
31/08:00am 9.4 7.5 9.2 99 0.1 ESE 9 11 5 6 1025.7 1025.6 0.0
31/07:30am 9.4 7.5 9.2 99 0.1 SE 9 15 5 8 1025.8 1025.7 0.0
31/07:00am 9.6 8.3 9.2 97 0.2 SE 6 9 3 5 1025.6 1025.5 0.0
31/06:30am 9.3 7.8 9.1 99 0.1 SE 7 9 4 5 1025.4 1025.3 0.0
31/06:00am 9.2 7.6 8.8 97 0.2 SE 7 9 4 5 1025.3 1025.2 0.0
31/05:30am 7.6 5.8 7.2 97 0.2 SSE 6 7 3 4 1025.2 1025.1 0.0
31/05:00am 7.9 6.3 7.9 100 0.0 SSE 6 7 3 4 1025.0 1024.9 0.0
31/04:30am 8.5 6.9 8.1 97 0.2 SSW 6 7 3 4 1025.2 1025.1 0.0
31/04:00am 8.2 6.9 7.6 96 0.3 SSE 4 7 2 4 1025.2 1025.1 0.0
31/03:30am 8.2 7.7 8.0 99 0.1 CALM 0 0 0 0 1025.1 1025.0 0.0
31/03:00am 8.9 7.4 8.5 97 0.2 SSE 6 6 3 3 1025.3 1025.2 0.0
31/02:30am 9.8 8.5 9.8 100 0.0 SSE 7 7 4 4 1025.3 1025.2 0.0
31/02:00am 10.4 8.7 10.0 97 0.2 SSE 9 9 5 5 1025.7 1025.6 0.0
31/01:30am 10.2 8.4 9.4 95 0.4 SSE 9 9 5 5 1025.8 1025.7 0.0
31/01:00am 9.3 7.6 8.5 95 0.4 SSE 7 7 4 4 1025.7 1025.6 0.0
31/12:30am 9.9 8.6 9.3 96 0.3 SSE 6 7 3 4 1025.7 1025.6 0.0
31/12:00am 10.6 9.2 9.6 93 0.5 S 7 9 4 5 1026.1 1026.0 0.0
 
Date/Time
CDT
Temp
°C
App
Temp
°C
Dew
Point
Rel
Hum
%
Delta-T
°C
Wind Press
QNH
hPa
Press
MSL
hPa
Rain
since 9 am
mm
Dir
 
Spd
km/h
Gust
km/h
Spd
kts
Gust
kts
30/11:30pm 10.7 9.6 9.9 95 0.4 SE 6 7 3 4 1026.2 1026.1 0.0
30/11:00pm 11.3 10.2 10.1 92 0.6 SSE 6 7 3 4 1026.3 1026.2 0.0
30/10:30pm 12.1 10.8 10.1 87 1.0 S 7 9 4 5 1026.3 1026.2 0.0
30/10:00pm 13.4 12.1 11.3 87 1.1 S 9 9 5 5 1026.4 1026.3 0.0
30/09:30pm 14.6 13.6 12.2 85 1.3 SSE 9 11 5 6 1026.4 1026.3 0.0
30/09:00pm 15.2 14.3 12.5 84 1.5 SSE 9 13 5 7 1026.1 1026.0 0.0
30/08:30pm 15.5 14.0 12.0 79 1.9 SSW 11 15 6 8 1026.0 1025.9 0.0
30/08:00pm 15.8 14.3 11.9 77 2.1 SSW 11 11 6 6 1025.6 1025.5 0.0
30/07:30pm 17.1 15.6 11.8 71 2.9 SW 11 15 6 8 1025.2 1025.1 0.0
30/07:00pm 18.8 16.8 11.5 62 4.0 SW 13 15 7 8 1024.9 1024.8 0.0
30/06:30pm 20.7 18.3 10.1 50 5.7 SW 13 17 7 9 1024.6 1024.5 0.0
30/06:00pm 21.8 18.7 10.2 47 6.3 SW 17 22 9 12 1024.4 1024.3 0.0
30/05:30pm 22.2 19.7 11.0 49 6.2 SSW 15 22 8 12 1024.2 1024.1 0.0
30/05:00pm 22.1 19.7 11.3 50 6.0 WSW 15 20 8 11 1024.0 1023.9 0.0
30/04:30pm 22.8 20.4 10.1 44 6.9 W 13 20 7 11 1024.0 1023.9 0.0
30/04:00pm 22.7 20.7 10.0 44 6.9 SSW 11 22 6 12 1024.1 1024.0 0.0
30/03:30pm 23.0 21.7 9.9 43 7.1 SW 7 15 4 8 1024.2 1024.1 0.0
30/03:00pm 21.3 19.9 10.9 51 5.7 SSE 9 15 5 8 1024.4 1024.3 0.0
30/02:30pm 21.4 19.3 9.7 47 6.3 SSW 11 17 6 9 1024.5 1024.4 0.0
30/02:00pm 21.0 19.1 10.5 51 5.7 SSW 11 15 6 8 1024.8 1024.7 0.0
30/01:30pm 21.2 19.4 10.8 51 5.7 SSW 11 19 6 10 1025.1 1025.0 0.0
30/01:00pm 20.4 18.4 10.2 52 5.5 SW 11 15 6 8 1025.4 1025.3 0.0
30/12:30pm 20.5 19.3 11.6 56 4.9 WNW 9 15 5 8 1025.8 1025.7 0.0
30/12:00pm 19.2 18.2 12.2 64 3.9 SW 9 15 5 8 1025.9 1025.8 0.0
30/11:30am 18.2 17.6 12.2 68 3.3 N 7 13 4 7 1026.1 1026.0 0.0
30/11:00am 16.7 17.2 13.9 83 1.6 WNW 4 9 2 5 1026.3 1026.2 0.0
30/10:30am 15.0 15.1 14.5 97 0.3 N 7 9 4 5 1026.4 1026.3 0.0
30/10:00am 13.9 14.2 13.5 97 0.2 NW 4 9 2 5 1026.3 1026.2 0.0
30/09:30am 13.2 13.0 13.0 99 0.1 NW 6 11 3 6 1026.0 1025.9 0.0
30/09:00am 13.1 12.9 12.9 99 0.1 N 6 9 3 5 1025.5 1025.4 0.0
30/08:30am 13.0 12.7 12.8 99 0.1 NNE 6 9 3 5 1025.2 1025.1 0.0
30/08:00am 12.9 12.5 12.5 97 0.2 NE 6 7 3 4 1024.7 1024.6 0.0
30/07:30am 12.4 13.1 12.2 99 0.1 CALM 0 0 0 0 1024.6 1024.5 0.0
30/07:00am 12.3 12.9 11.9 97 0.2 CALM 0 0 0 0 1024.4 1024.3 0.0
30/06:30am 12.1 12.6 11.7 97 0.2 CALM 0 0 0 0 1024.2 1024.1 0.0
30/06:00am 11.9 12.4 11.5 97 0.2 CALM 0 0 0 0 1023.8 1023.7 0.0
30/05:30am 11.6 11.7 11.4 99 0.1 ENE 2 6 1 3 1023.6 1023.5 0.0
30/05:00am 11.3 10.5 10.9 97 0.2 ENE 6 7 3 4 1023.4 1023.4 0.0
30/04:30am 11.1 11.3 10.7 97 0.2 CALM 0 0 0 0 1023.4 1023.4 0.0
30/04:00am 10.7 10.8 10.3 97 0.2 CALM 0 0 0 0 1023.2 1023.2 0.0
30/03:30am 9.7 9.6 9.3 97 0.2 CALM 0 0 0 0 1023.3 1023.3 0.0
30/03:00am 8.9 8.4 7.8 93 0.5 CALM 0 0 0 0 1023.3 1023.3 0.0
30/02:30am 8.0 7.4 7.4 96 0.3 CALM 0 0 0 0 1023.4 1023.4 0.0
30/02:00am 8.1 7.5 7.2 94 0.4 CALM 0 0 0 0 1023.3 1023.3 0.0
30/01:30am 8.5 7.9 7.4 93 0.5 CALM 0 0 0 0 1023.4 1023.4 0.0
30/01:00am 9.0 8.5 8.0 93 0.5 CALM 0 0 0 0 1023.6 1023.5 0.0
30/12:30am 9.2 8.7 7.9 92 0.6 CALM 0 0 0 0 1023.7 1023.6 0.0
30/12:00am 9.4 9.0 8.4 93 0.5 CALM 0 0 0 0 1023.6 1023.5 0.0
 
Date/Time
CDT
Temp
°C
App
Temp
°C
Dew
Point
Rel
Hum
%
Delta-T
°C
Wind Press
QNH
hPa
Press
MSL
hPa
Rain
since 9 am
mm
Dir
 
Spd
km/h
Gust
km/h
Spd
kts
Gust
kts
29/11:30pm 10.1 8.7 8.9 92 0.6 SSE 6 6 3 3 1023.6 1023.5 0.0
29/11:00pm 10.8 9.6 9.4 91 0.7 SSE 6 7 3 4 1023.7 1023.6 0.0
29/10:30pm 11.1 9.7 9.5 90 0.8 S 7 9 4 5 1023.8 1023.7 0.0
29/10:00pm 11.0 9.6 9.6 91 0.7 SSW 7 7 4 4 1023.9 1023.8 0.0
29/09:30pm 11.8 10.6 10.2 90 0.8 SSW 7 7 4 4 1023.7 1023.6 0.0
29/09:00pm 12.6 11.0 10.3 86 1.2 SSW 9 9 5 5 1023.6 1023.5 0.0
29/08:30pm 14.0 12.4 10.3 78 1.9 SSW 9 9 5 5 1023.3 1023.3 0.0
29/08:00pm 15.3 13.2 9.9 70 2.8 SSW 11 11 6 6 1023.0 1023.0 0.0
29/07:30pm 17.1 14.9 9.4 60 4.0 SW 11 15 6 8 1022.8 1022.7 0.0
29/07:00pm 18.5 15.1 9.1 54 4.9 SW 17 24 9 13 1022.5 1022.4 0.0
29/06:30pm 20.1 16.3 8.9 48 5.9 WSW 19 28 10 15 1022.1 1022.0 0.0
29/06:00pm 20.9 17.0 9.5 48 6.1 WSW 20 32 11 17 1021.6 1021.5 0.0
29/05:30pm 22.0 19.5 8.0 40 7.3 W 11 17 6 9 1021.2 1021.1 0.0
29/05:00pm 23.1 19.1 6.8 35 8.4 W 17 22 9 12 1021.1 1021.0 0.0
29/04:30pm 23.0 19.7 6.3 34 8.5 W 13 20 7 11 1021.0 1020.9 0.0
29/04:00pm 21.9 19.6 7.6 39 7.4 WNW 9 17 5 9 1021.0 1020.9 0.0
29/03:30pm 22.8 19.7 7.4 37 8.0 WNW 13 24 7 13 1021.0 1020.9 0.0
29/03:00pm 22.7 19.4 8.0 39 7.7 W 15 22 8 12 1021.3 1021.2 0.0
29/02:30pm 22.0 19.3 7.5 39 7.5 W 11 24 6 13 1021.5 1021.4 0.0
29/02:00pm 21.5 18.6 8.1 42 7.0 WNW 13 20 7 11 1021.8 1021.7 0.0
29/01:30pm 21.5 18.3 8.3 42 6.9 NW 15 24 8 13 1022.1 1022.0 0.0
29/01:00pm 20.6 18.2 8.6 46 6.3 W 11 19 6 10 1022.4 1022.3 0.0
29/12:30pm 21.1 18.7 8.5 44 6.6 NNW 11 20 6 11 1022.6 1022.5 0.0
29/12:00pm 19.2 16.3 8.1 48 5.7 NNW 13 17 7 9 1022.8 1022.7 0.0
29/11:30am 19.5 17.1 8.8 50 5.6 WNW 11 19 6 10 1023.1 1023.1 0.0
29/11:00am 19.1 17.7 9.7 54 5.0 WNW 7 15 4 8 1023.1 1023.1 0.0
29/10:30am 18.1 16.4 9.8 58 4.4 NW 9 13 5 7 1023.3 1023.3 0.0
29/10:00am 16.6 15.5 10.6 67 3.2 NNW 7 13 4 7 1023.4 1023.4 0.0
29/09:30am 14.2 13.0 10.4 78 2.0 N 7 9 4 5 1023.3 1023.3 0.0
29/09:00am 11.4 10.3 10.0 91 0.7 NNE 6 7 3 4 1023.1 1023.1 0.0
29/08:30am 9.7 9.2 9.3 97 0.2 NE 2 6 1 3 1022.9 1022.9 0.0
29/08:00am 7.6 5.6 7.2 97 0.2 NE 7 9 4 5 1022.7 1022.6 0.0
29/07:30am 5.5 2.6 4.8 95 0.3 ENE 9 9 5 5 1022.6 1022.5 0.0
29/07:00am 5.0 2.1 4.8 99 0.1 ENE 9 9 5 5 1022.3 1022.2 0.0
29/06:30am 5.1 2.6 4.9 99 0.1 ENE 7 7 4 4 1022.1 1022.0 0.0
29/06:00am 6.1 3.8 5.9 99 0.1 ENE 7 7 4 4 1021.8 1021.7 0.0
29/05:30am 6.6 4.4 6.2 97 0.2 ENE 7 7 4 4 1021.7 1021.6 0.0
29/05:00am 6.0 3.3 5.5 97 0.2 ENE 9 11 5 6 1021.3 1021.2 0.0
29/04:30am 5.8 3.0 5.1 95 0.3 ENE 9 11 5 6 1021.1 1021.0 0.0
29/04:00am 5.5 3.2 4.8 95 0.3 SE 6 7 3 4 1021.2 1021.1 0.0
29/03:30am 5.4 3.1 4.9 97 0.2 S 6 7 3 4 1021.3 1021.2 0.0
29/03:00am 5.7 3.2 5.0 95 0.3 SW 7 9 4 5 1021.3 1021.2 0.0
29/02:30am 5.7 2.9 5.2 97 0.2 SW 9 11 5 6 1021.4 1021.3 0.0
29/02:00am 6.5 4.2 5.8 95 0.3 ENE 7 9 4 5 1021.3 1021.2 0.0
29/01:30am 6.9 4.3 6.0 94 0.4 NE 9 11 5 6 1021.4 1021.3 0.0
29/01:00am 6.3 4.2 5.6 95 0.3 NNE 6 7 3 4 1021.5 1021.4 0.0
29/12:30am 6.7 4.4 5.8 94 0.4 NNE 7 9 4 5 1021.8 1021.7 0.0
29/12:00am 7.3 5.1 6.2 93 0.5 NNE 7 11 4 6 1021.9 1021.8 0.0
 
Date/Time
CDT
Temp
°C
App
Temp
°C
Dew
Point
Rel
Hum
%
Delta-T
°C
Wind Press
QNH
hPa
Press
MSL
hPa
Rain
since 9 am
mm
Dir
 
Spd
km/h
Gust
km/h
Spd
kts
Gust
kts
28/11:30pm 7.6 6.8 6.5 93 0.5 CALM 0 0 0 0 1022.1 1022.0 0.0
28/11:00pm 7.7 5.8 6.6 93 0.5 SW 6 7 3 4 1022.1 1022.0 0.0
28/10:30pm 8.3 6.5 7.0 91 0.6 SW 6 7 3 4 1022.4 1022.3 0.0
28/10:00pm 8.7 6.8 7.4 91 0.6 WSW 7 11 4 6 1022.4 1022.3 0.0

Other Formats:

Comma delimited format used in spreadsheet applications
http://www.bom.gov.au/fwo/IDS60801/IDS60801.94817.axf

JavaScript Object Notation format (JSON) in row-major order
http://www.bom.gov.au/fwo/IDS60801/IDS60801.94817.json